createdAt,value
2023-02-12T00:01:22.144Z,103398.41
2023-02-12T00:03:49.401Z,103395.41
2023-02-12T00:06:16.584Z,103400.41
2023-02-12T00:08:43.963Z,103402.84
2023-02-12T00:11:16.895Z,103405.81
2023-02-12T00:13:44.315Z,103408.13
2023-02-12T00:16:14.865Z,103412.69
2023-02-12T00:18:42.403Z,103411.13
2023-02-12T00:21:09.491Z,103415.41
2023-02-12T00:23:38.292Z,103424.38
2023-02-12T00:26:10.110Z,103409.69
2023-02-12T00:28:37.712Z,103421.41
2023-02-12T00:31:09.751Z,103423.69
2023-02-12T00:33:37.518Z,103429.25
2023-02-12T00:36:05.098Z,103432.81
2023-02-12T00:38:32.423Z,103432.97
2023-02-12T00:40:59.483Z,103437.06
2023-02-12T00:43:26.278Z,103434.94
2023-02-12T00:45:53.362Z,103435.09
2023-02-12T00:48:21.391Z,103439.38
2023-02-12T00:50:49.082Z,103433.66
2023-02-12T00:53:18.747Z,103432.81
2023-02-12T00:55:46.456Z,103435.25
2023-02-12T00:58:13.323Z,103436.81
2023-02-12T01:00:40.243Z,103441.94
2023-02-12T01:03:07.558Z,103437.94
2023-02-12T01:05:34.989Z,103430.69
2023-02-12T01:08:02.264Z,103432.66
2023-02-12T01:10:29.463Z,103449.19
2023-02-12T01:12:56.859Z,103450.19
2023-02-12T01:15:24.205Z,103452.06
2023-02-12T01:17:54.255Z,103451.34
2023-02-12T01:20:23.925Z,103444.66
2023-02-12T01:22:51.346Z,103449.66
2023-02-12T01:25:20.524Z,103451.91
2023-02-12T01:27:48.117Z,103456.06
2023-02-12T01:30:16.392Z,103450.06
2023-02-12T01:32:44.230Z,103445.38
2023-02-12T01:35:11.193Z,103440.38
2023-02-12T01:37:39.066Z,103448.06
2023-02-12T01:40:07.449Z,103453.59
2023-02-12T01:42:34.705Z,103440.66
2023-02-12T01:45:36.518Z,103433.06
2023-02-12T01:48:03.515Z,103437.66
2023-02-12T01:50:30.672Z,103441.09
2023-02-12T01:52:58.818Z,103440.78
2023-02-12T01:55:26.042Z,103435.94
2023-02-12T01:57:52.979Z,103441.63
2023-02-12T02:00:23.834Z,103438.22
2023-02-12T02:03:04.991Z,103439.06
2023-02-12T02:05:54.693Z,103434.22
2023-02-12T02:08:23.309Z,103441.06
2023-02-12T02:10:50.158Z,103441.06
2023-02-12T02:13:35.959Z,103445.06
2023-02-12T02:16:14.008Z,103440.50
2023-02-12T02:19:02.821Z,103430.38
2023-02-12T02:21:41.313Z,103433.09
2023-02-12T02:24:29.867Z,103432.38
2023-02-12T02:27:15.303Z,103438.38
2023-02-12T02:30:13.825Z,103440.22
2023-02-12T02:32:59.169Z,103445.47
2023-02-12T02:35:42.371Z,103450.78
2023-02-12T02:38:34.051Z,103444.34
2023-02-12T02:41:11.060Z,103435.38
2023-02-12T02:43:46.270Z,103436.38
2023-02-12T02:46:39.272Z,103436.66
2023-02-12T02:49:11.689Z,103433.97
2023-02-12T02:51:43.512Z,103441.78
2023-02-12T02:54:16.485Z,103439.06
2023-02-12T02:56:47.835Z,103444.22
2023-02-12T02:59:34.494Z,103442.78
2023-02-12T03:02:09.208Z,103442.78
2023-02-12T03:05:01.098Z,103448.50
2023-02-12T03:07:58.237Z,103445.78
2023-02-12T03:10:32.182Z,103453.47
2023-02-12T03:13:31.474Z,103449.06
2023-02-12T03:16:26.175Z,103455.94
2023-02-12T03:18:59.794Z,103454.91
2023-02-12T03:21:37.465Z,103455.50
2023-02-12T03:24:22.151Z,103461.34
2023-02-12T03:26:54.663Z,103453.22
2023-02-12T03:29:21.728Z,103453.22
2023-02-12T03:32:01.718Z,103450.22
2023-02-12T03:34:41.140Z,103451.63
2023-02-12T03:37:22.183Z,103454.34
2023-02-12T03:39:59.143Z,103449.91
2023-02-12T03:42:38.204Z,103451.47
2023-02-12T03:45:14.569Z,103458.03
2023-02-12T03:48:31.012Z,103465.31
2023-02-12T03:51:01.142Z,103448.75
2023-02-12T03:53:30.309Z,103471.91
2023-02-12T03:56:03.676Z,103471.31
2023-02-12T03:58:34.816Z,103479.88
2023-02-12T04:01:02.798Z,103477.00
2023-02-12T04:03:31.160Z,103485.00
2023-02-12T04:05:58.424Z,103476.28
2023-02-12T04:08:28.777Z,103473.00
2023-02-12T04:11:13.756Z,103475.03
2023-02-12T04:13:53.112Z,103479.88
2023-02-12T04:16:35.241Z,103480.13
2023-02-12T04:19:04.097Z,103474.00
2023-02-12T04:21:49.659Z,103475.16
2023-02-12T04:24:34.310Z,103481.88
2023-02-12T04:27:20.817Z,103485.56
2023-02-12T04:30:20.940Z,103482.13
2023-02-12T04:32:53.945Z,103490.69
2023-02-12T04:35:25.036Z,103501.69
2023-02-12T04:38:02.539Z,103505.38
2023-02-12T04:40:30.359Z,103500.69
2023-02-12T04:42:57.368Z,103506.56
2023-02-12T04:45:33.462Z,103502.13
2023-02-12T04:48:01.304Z,103503.88
2023-02-12T04:50:37.832Z,103502.72
2023-02-12T04:53:04.865Z,103505.28
2023-02-12T04:55:31.653Z,103493.44
2023-02-12T04:57:58.477Z,103496.47
2023-02-12T05:00:25.290Z,103491.56
2023-02-12T05:02:52.277Z,103487.72
2023-02-12T05:05:19.371Z,103494.88
2023-02-12T05:07:46.421Z,103490.00
2023-02-12T05:10:13.503Z,103501.44
2023-02-12T05:12:40.662Z,103498.72
2023-02-12T05:15:07.838Z,103500.13
2023-02-12T05:17:34.854Z,103501.28
2023-02-12T05:20:02.046Z,103502.00
2023-02-12T05:22:28.957Z,103503.88
2023-02-12T05:24:55.951Z,103503.16
2023-02-12T05:27:22.794Z,103505.44
2023-02-12T05:29:49.772Z,103501.00
2023-02-12T05:32:16.732Z,103509.56
2023-02-12T05:34:43.773Z,103506.13
2023-02-12T05:37:10.664Z,103511.56
2023-02-12T05:39:37.510Z,103504.72
2023-02-12T05:42:04.531Z,103507.28
2023-02-12T05:44:31.554Z,103513.69
2023-02-12T05:46:58.638Z,103524.41
2023-02-12T05:49:25.388Z,103513.56
2023-02-12T05:51:52.292Z,103519.84
2023-02-12T05:54:19.278Z,103522.69
2023-02-12T05:56:48.063Z,103524.84
2023-02-12T05:59:22.220Z,103524.13
2023-02-12T06:01:50.869Z,103520.84
2023-02-12T06:04:21.645Z,103528.69
2023-02-12T06:06:48.771Z,103523.97
2023-02-12T06:09:15.984Z,103521.25
2023-02-12T06:11:44.016Z,103523.81
2023-02-12T06:14:14.181Z,103514.41
2023-02-12T06:16:41.452Z,103506.56
2023-02-12T06:19:08.614Z,103517.13
2023-02-12T06:21:35.594Z,103521.84
2023-02-12T06:24:02.687Z,103523.53
2023-02-12T06:26:29.656Z,103525.25
2023-02-12T06:28:56.566Z,103530.97
2023-02-12T06:31:31.373Z,103533.25
2023-02-12T06:34:01.995Z,103527.25
2023-02-12T06:36:30.087Z,103536.81
2023-02-12T06:38:57.542Z,103526.94
2023-02-12T06:41:24.981Z,103528.41
2023-02-12T06:43:52.165Z,103539.38
2023-02-12T06:46:19.163Z,103540.41
2023-02-12T06:48:46.058Z,103542.97
2023-02-12T06:51:18.286Z,103540.94
2023-02-12T06:53:45.292Z,103549.78
2023-02-12T06:56:14.210Z,103554.50
2023-02-12T06:58:45.340Z,103560.66
2023-02-12T07:01:18.562Z,103562.38
2023-02-12T07:03:49.749Z,103564.94
2023-02-12T07:06:16.788Z,103566.91
2023-02-12T07:08:43.897Z,103567.94
2023-02-12T07:11:11.058Z,103570.50
2023-02-12T07:13:38.028Z,103567.78
2023-02-12T07:16:06.942Z,103574.63
2023-02-12T07:18:36.125Z,103586.03
2023-02-12T07:21:04.617Z,103573.91
2023-02-12T07:23:31.905Z,103581.78
2023-02-12T07:26:07.486Z,103590.59
2023-02-12T07:28:35.499Z,103588.63
2023-02-12T07:31:23.946Z,103600.47
2023-02-12T07:33:55.261Z,103596.34
2023-02-12T07:36:23.524Z,103595.63
2023-02-12T07:38:50.802Z,103597.44
2023-02-12T07:41:27.901Z,103594.88
2023-02-12T07:44:00.405Z,103603.44
2023-02-12T07:46:32.961Z,103597.75
2023-02-12T07:49:01.931Z,103600.88
2023-02-12T07:51:29.330Z,103599.91
2023-02-12T07:53:56.648Z,103608.88
2023-02-12T07:56:29.700Z,103608.00
2023-02-12T07:58:58.673Z,103613.44
2023-02-12T08:01:30.585Z,103604.88
2023-02-12T08:04:06.252Z,103608.00
2023-02-12T08:06:36.011Z,103609.41
2023-02-12T08:09:05.859Z,103607.28
2023-02-12T08:11:33.713Z,103604.00
2023-02-12T08:14:01.256Z,103612.72
2023-02-12T08:16:41.169Z,103614.56
2023-02-12T08:19:17.895Z,103611.28
2023-02-12T08:21:49.249Z,103613.28
2023-02-12T08:24:16.112Z,103608.09
2023-02-12T08:26:43.020Z,103616.25
2023-02-12T08:29:13.585Z,103613.38
2023-02-12T08:31:49.253Z,103617.25
2023-02-12T08:34:28.223Z,103617.75
2023-02-12T08:36:56.239Z,103612.91
2023-02-12T08:39:24.765Z,103613.03
2023-02-12T08:41:54.058Z,103617.00
2023-02-12T08:44:21.005Z,103620.97
2023-02-12T08:46:51.794Z,103619.53
2023-02-12T08:49:21.496Z,103626.38
2023-02-12T08:51:50.726Z,103631.22
2023-02-12T08:54:21.116Z,103638.09
2023-02-12T08:56:48.336Z,103635.19
2023-02-12T08:59:16.400Z,103643.75
2023-02-12T09:01:44.446Z,103639.22
2023-02-12T09:04:18.149Z,103642.03
2023-02-12T09:06:46.966Z,103643.72
2023-02-12T09:09:15.149Z,103640.00
2023-02-12T09:11:42.377Z,103642.00
2023-02-12T09:14:13.475Z,103642.19
2023-02-12T09:16:43.716Z,103650.44
2023-02-12T09:19:13.502Z,103652.78
2023-02-12T09:21:40.891Z,103647.28
2023-02-12T09:24:08.349Z,103648.03
2023-02-12T09:26:35.461Z,103644.44
2023-02-12T09:29:03.838Z,103639.88
2023-02-12T09:31:32.261Z,103648.47
2023-02-12T09:34:02.035Z,103652.06
2023-02-12T09:36:29.878Z,103655.06
2023-02-12T09:38:57.635Z,103654.22
2023-02-12T09:42:04.779Z,103658.00
2023-02-12T09:44:41.785Z,103670.91
2023-02-12T09:47:26.561Z,103671.06
2023-02-12T09:50:33.337Z,103671.13
2023-02-12T09:53:00.845Z,103672.69
2023-02-12T09:55:33.145Z,103670.41
2023-02-12T09:58:11.581Z,103674.56
2023-02-12T10:00:39.248Z,103681.97
2023-02-12T10:03:13.703Z,103676.66
2023-02-12T10:05:59.273Z,103679.94
2023-02-12T10:08:53.863Z,103682.25
2023-02-12T10:11:43.804Z,103682.22
2023-02-12T10:14:26.956Z,103687.81
2023-02-12T10:17:19.938Z,103690.53
2023-02-12T10:20:02.068Z,103680.75
2023-02-12T10:22:57.054Z,103687.63
2023-02-12T10:25:29.952Z,103675.31
2023-02-12T10:28:00.586Z,103679.19
2023-02-12T10:30:53.588Z,103681.53
2023-02-12T10:33:38.823Z,103675.88
2023-02-12T10:36:46.023Z,103668.66
2023-02-12T10:39:35.334Z,103678.38
2023-02-12T10:42:26.097Z,103673.34
2023-02-12T10:44:55.631Z,103671.63
2023-02-12T10:47:24.447Z,103671.19
2023-02-12T10:49:58.139Z,103685.56
2023-02-12T10:52:45.487Z,103672.63
2023-02-12T10:55:33.600Z,103680.00
2023-02-12T10:58:03.028Z,103680.66
2023-02-12T11:00:32.661Z,103682.66
2023-02-12T11:03:12.080Z,103689.22
2023-02-12T11:05:41.839Z,103678.63
2023-02-12T11:08:29.801Z,103673.72
2023-02-12T11:11:24.783Z,103671.63
2023-02-12T11:14:06.278Z,103667.44
2023-02-12T11:16:40.227Z,103670.06
2023-02-12T11:19:22.136Z,103666.00
2023-02-12T11:21:50.229Z,103664.06
2023-02-12T11:24:31.022Z,103667.09
2023-02-12T11:27:25.671Z,103661.72
2023-02-12T11:30:10.914Z,103658.53
2023-02-12T11:32:37.955Z,103661.31
2023-02-12T11:35:24.238Z,103660.16
2023-02-12T11:37:56.252Z,103650.94
2023-02-12T11:40:35.776Z,103643.78
2023-02-12T11:43:06.064Z,103650.94
2023-02-12T11:45:38.347Z,103645.91
2023-02-12T11:48:21.745Z,103652.03
2023-02-12T11:50:52.546Z,103650.72
2023-02-12T11:53:36.315Z,103648.28
2023-02-12T11:56:08.318Z,103645.19
2023-02-12T11:58:35.466Z,103654.44
2023-02-12T12:01:14.718Z,103653.88
2023-02-12T12:04:07.956Z,103646.72
2023-02-12T12:06:58.466Z,103648.72
2023-02-12T12:09:35.141Z,103650.75
2023-02-12T12:12:20.520Z,103637.84
2023-02-12T12:15:17.938Z,103650.94
2023-02-12T12:18:10.203Z,103642.38
2023-02-12T12:20:53.067Z,103642.13
2023-02-12T12:23:25.713Z,103636.69
2023-02-12T12:26:03.106Z,103632.84
2023-02-12T12:29:01.784Z,103641.72
2023-02-12T12:31:43.163Z,103636.28
2023-02-12T12:34:20.136Z,103633.72
2023-02-12T12:37:09.082Z,103626.56
2023-02-12T12:40:02.604Z,103631.59
2023-02-12T12:42:41.391Z,103629.13
2023-02-12T12:45:35.927Z,103626.25
2023-02-12T12:48:20.697Z,103629.13
2023-02-12T12:51:04.398Z,103620.97
2023-02-12T12:53:57.692Z,103619.50
2023-02-12T12:56:43.950Z,103599.78
2023-02-12T12:59:10.972Z,103609.50
2023-02-12T13:01:57.599Z,103599.09
2023-02-12T13:05:02.695Z,103601.81
2023-02-12T13:07:29.577Z,103602.78
2023-02-12T13:10:19.895Z,103596.38
2023-02-12T13:13:18.029Z,103595.94
2023-02-12T13:16:23.615Z,103592.66
2023-02-12T13:19:17.196Z,103588.69
2023-02-12T13:22:26.552Z,103592.81
2023-02-12T13:25:30.108Z,103588.47
2023-02-12T13:28:00.943Z,103592.72
2023-02-12T13:30:35.065Z,103593.34
2023-02-12T13:33:10.697Z,103588.06
2023-02-12T13:35:43.892Z,103590.06
2023-02-12T13:38:21.364Z,103587.50
2023-02-12T13:40:49.971Z,103591.09
2023-02-12T13:43:49.579Z,103599.16
2023-02-12T13:46:31.771Z,103590.94
2023-02-12T13:49:16.322Z,103588.22
2023-02-12T13:51:54.296Z,103595.50
2023-02-12T13:54:40.019Z,103591.94
2023-02-12T13:57:17.628Z,103591.22
2023-02-12T13:59:49.105Z,103591.78
2023-02-12T14:02:19.066Z,103584.28
2023-02-12T14:05:21.451Z,103587.44
2023-02-12T14:07:52.282Z,103593.03
2023-02-12T14:10:22.499Z,103588.84
2023-02-12T14:12:50.134Z,103596.00
2023-02-12T14:15:34.111Z,103586.06
2023-02-12T14:18:07.910Z,103582.41
2023-02-12T14:20:36.641Z,103580.69
2023-02-12T14:23:21.034Z,103581.94
2023-02-12T14:26:17.625Z,103575.84
2023-02-12T14:29:02.078Z,103571.97
2023-02-12T14:31:35.005Z,103580.13
2023-02-12T14:34:10.289Z,103580.06
2023-02-12T14:36:43.424Z,103580.06
2023-02-12T14:39:19.631Z,103582.38
2023-02-12T14:41:53.450Z,103581.94
2023-02-12T14:44:21.833Z,103580.50
2023-02-12T14:46:55.769Z,103583.22
2023-02-12T14:49:35.476Z,103586.13
2023-02-12T14:52:07.659Z,103586.72
2023-02-12T14:54:41.627Z,103580.22
2023-02-12T14:57:18.780Z,103590.88
2023-02-12T14:59:48.124Z,103578.03
2023-02-12T15:02:26.417Z,103589.94
2023-02-12T15:04:57.777Z,103590.59
2023-02-12T15:07:41.518Z,103597.59
2023-02-12T15:10:24.030Z,103607.72
2023-02-12T15:13:21.406Z,103605.78
2023-02-12T15:15:57.435Z,103592.28
2023-02-12T15:18:48.473Z,103601.66
2023-02-12T15:21:24.157Z,103597.31
2023-02-12T15:24:11.292Z,103598.31
2023-02-12T15:26:45.446Z,103599.16
2023-02-12T15:29:26.321Z,103598.69
2023-02-12T15:32:00.136Z,103599.53
2023-02-12T15:34:33.765Z,103609.84
2023-02-12T15:37:03.818Z,103605.91
2023-02-12T15:40:02.116Z,103592.94
2023-02-12T15:42:35.236Z,103599.13
2023-02-12T15:45:03.418Z,103601.69
2023-02-12T15:47:30.162Z,103604.19
2023-02-12T15:50:03.263Z,103594.47
2023-02-12T15:52:36.503Z,103601.63
2023-02-12T15:55:05.392Z,103595.63
2023-02-12T15:57:36.272Z,103598.19
2023-02-12T16:00:08.312Z,103608.66
2023-02-12T16:02:37.374Z,103603.13
2023-02-12T16:05:05.992Z,103611.28
2023-02-12T16:07:40.006Z,103609.47
2023-02-12T16:10:07.539Z,103613.03
2023-02-12T16:12:37.762Z,103623.75
2023-02-12T16:15:05.555Z,103616.91
2023-02-12T16:17:34.915Z,103613.28
2023-02-12T16:20:09.109Z,103617.78
2023-02-12T16:22:41.274Z,103619.22
2023-02-12T16:25:29.852Z,103626.97
2023-02-12T16:28:07.196Z,103625.00
2023-02-12T16:30:39.399Z,103624.31
2023-02-12T16:33:35.474Z,103623.28
2023-02-12T16:36:05.871Z,103627.63
2023-02-12T16:38:41.643Z,103628.19
2023-02-12T16:41:20.785Z,103633.88
2023-02-12T16:43:51.147Z,103640.88
2023-02-12T16:46:19.328Z,103641.19
2023-02-12T16:48:52.442Z,103640.19
2023-02-12T16:51:26.809Z,103645.63
2023-02-12T16:53:57.861Z,103644.75
2023-02-12T16:56:32.882Z,103647.63
2023-02-12T16:59:01.661Z,103648.78
2023-02-12T17:01:34.539Z,103652.22
2023-02-12T17:04:05.770Z,103643.22
2023-02-12T17:06:33.540Z,103641.78
2023-02-12T17:09:00.526Z,103642.66
2023-02-12T17:11:28.771Z,103644.50
2023-02-12T17:13:57.095Z,103635.94
2023-02-12T17:16:30.887Z,103642.25
2023-02-12T17:18:59.679Z,103639.97
2023-02-12T17:21:28.881Z,103643.56
2023-02-12T17:23:55.908Z,103648.88
2023-02-12T17:26:24.665Z,103635.13
2023-02-12T17:28:51.724Z,103641.00
2023-02-12T17:31:19.754Z,103640.13
2023-02-12T17:33:46.756Z,103643.97
2023-02-12T17:36:13.756Z,103645.00
2023-02-12T17:38:40.646Z,103647.16
2023-02-12T17:41:12.232Z,103653.88
2023-02-12T17:43:38.988Z,103648.44
2023-02-12T17:46:11.479Z,103654.00
2023-02-12T17:48:38.717Z,103658.41
2023-02-12T17:51:06.000Z,103661.00
2023-02-12T17:53:32.908Z,103660.41
2023-02-12T17:56:02.440Z,103670.84
2023-02-12T17:58:29.564Z,103665.41
2023-02-12T18:00:56.752Z,103664.00
2023-02-12T18:03:26.245Z,103657.28
2023-02-12T18:05:53.153Z,103665.41
2023-02-12T18:08:21.122Z,103666.16
2023-02-12T18:10:48.204Z,103660.72
2023-02-12T18:13:15.261Z,103665.41
2023-02-12T18:15:42.206Z,103653.88
2023-02-12T18:18:12.407Z,103659.56
2023-02-12T18:20:42.289Z,103665.28
2023-02-12T18:23:10.262Z,103662.84
2023-02-12T18:25:44.721Z,103671.88
2023-02-12T18:28:12.335Z,103670.97
2023-02-12T18:30:42.961Z,103675.72
2023-02-12T18:33:12.737Z,103680.72
2023-02-12T18:35:41.930Z,103675.44
2023-02-12T18:38:09.546Z,103677.84
2023-02-12T18:40:40.110Z,103683.13
2023-02-12T18:43:07.086Z,103679.13
2023-02-12T18:45:34.073Z,103685.56
2023-02-12T18:48:00.903Z,103686.00
2023-02-12T18:50:27.927Z,103685.72
2023-02-12T18:52:55.609Z,103681.72
2023-02-12T18:55:22.508Z,103685.88
2023-02-12T18:57:56.964Z,103676.59
2023-02-12T19:00:24.812Z,103675.56
2023-02-12T19:02:51.609Z,103668.00
2023-02-12T19:05:18.925Z,103666.56
2023-02-12T19:07:45.892Z,103672.84
2023-02-12T19:10:12.889Z,103669.56
2023-02-12T19:12:39.977Z,103674.84
2023-02-12T19:15:09.194Z,103676.84
2023-02-12T19:17:36.325Z,103667.72
2023-02-12T19:20:03.437Z,103666.28
2023-02-12T19:22:30.254Z,103669.69
2023-02-12T19:24:57.091Z,103679.84
2023-02-12T19:27:24.148Z,103680.28
2023-02-12T19:29:51.148Z,103679.97
2023-02-12T19:32:18.400Z,103677.38
2023-02-12T19:34:46.233Z,103675.66
2023-02-12T19:37:14.060Z,103675.41
2023-02-12T19:39:41.172Z,103672.84
2023-02-12T19:42:08.556Z,103672.69
2023-02-12T19:44:35.684Z,103679.13
2023-02-12T19:47:02.651Z,103684.38
2023-02-12T19:49:29.731Z,103684.25
2023-02-12T19:51:56.612Z,103686.53
2023-02-12T19:54:24.681Z,103689.97
2023-02-12T19:56:54.169Z,103683.81
2023-02-12T19:59:23.469Z,103674.69
2023-02-12T20:01:50.525Z,103685.53
2023-02-12T20:04:22.206Z,103690.81
2023-02-12T20:06:51.210Z,103688.53
2023-02-12T20:09:19.291Z,103679.09
2023-02-12T20:11:46.539Z,103670.53
2023-02-12T20:14:14.592Z,103679.97
2023-02-12T20:16:44.008Z,103680.53
2023-02-12T20:19:22.980Z,103676.97
2023-02-12T20:21:55.349Z,103673.66
2023-02-12T20:24:30.598Z,103685.94
2023-02-12T20:26:59.864Z,103695.06
2023-02-12T20:29:27.024Z,103677.22
2023-02-12T20:31:53.999Z,103685.75
2023-02-12T20:34:22.344Z,103677.06
2023-02-12T20:36:49.472Z,103679.09
2023-02-12T20:39:19.010Z,103674.66
2023-02-12T20:41:46.178Z,103673.50
2023-02-12T20:44:16.213Z,103670.19
2023-02-12T20:46:47.952Z,103672.66
2023-02-12T20:49:22.348Z,103681.94
2023-02-12T20:51:50.338Z,103681.94
2023-02-12T20:54:17.409Z,103685.09
2023-02-12T20:56:44.472Z,103675.09
2023-02-12T20:59:12.520Z,103676.38
2023-02-12T21:01:42.030Z,103677.06
2023-02-12T21:04:15.029Z,103671.66
2023-02-12T21:06:42.198Z,103676.81
2023-02-12T21:09:10.978Z,103679.22
2023-02-12T21:11:38.971Z,103682.78
2023-02-12T21:14:21.401Z,103667.94
2023-02-12T21:16:49.936Z,103675.38
2023-02-12T21:19:18.140Z,103665.22
2023-02-12T21:21:45.605Z,103670.41
2023-02-12T21:24:17.780Z,103679.81
2023-02-12T21:26:45.258Z,103672.81
2023-02-12T21:29:12.439Z,103666.94
2023-02-12T21:31:42.140Z,103652.56
2023-02-12T21:34:12.793Z,103661.94
2023-02-12T21:36:41.854Z,103660.75
2023-02-12T21:39:13.625Z,103657.63
2023-02-12T21:41:42.494Z,103661.34
2023-02-12T21:44:14.631Z,103668.59
2023-02-12T21:46:42.001Z,103668.47
2023-02-12T21:49:12.835Z,103667.25
2023-02-12T21:51:44.849Z,103660.34
2023-02-12T21:54:15.671Z,103659.78
2023-02-12T21:56:44.402Z,103663.50
2023-02-12T21:59:13.414Z,103668.47
2023-02-12T22:01:47.370Z,103666.50
2023-02-12T22:04:14.764Z,103668.22
2023-02-12T22:06:48.765Z,103665.63
2023-02-12T22:09:17.869Z,103662.19
2023-02-12T22:11:45.072Z,103663.75
2023-02-12T22:14:15.831Z,103669.75
2023-02-12T22:16:44.645Z,103662.50
2023-02-12T22:19:11.876Z,103671.75
2023-02-12T22:21:40.860Z,103663.19
2023-02-12T22:24:10.048Z,103660.63
2023-02-12T22:26:36.949Z,103668.03
2023-02-12T22:29:06.681Z,103661.47
2023-02-12T22:31:36.451Z,103671.03
2023-02-12T22:34:09.998Z,103663.63
2023-02-12T22:36:38.309Z,103667.56
2023-02-12T22:39:05.988Z,103670.19
2023-02-12T22:41:34.086Z,103672.75
2023-02-12T22:44:02.377Z,103676.59
2023-02-12T22:46:29.664Z,103668.72
2023-02-12T22:48:56.620Z,103672.31
2023-02-12T22:51:29.963Z,103655.59
2023-02-12T22:53:57.790Z,103655.34
2023-02-12T22:56:28.022Z,103657.19
2023-02-12T22:59:00.410Z,103656.47
2023-02-12T23:01:28.809Z,103656.47
2023-02-12T23:03:56.229Z,103662.75
2023-02-12T23:06:26.045Z,103658.47
2023-02-12T23:08:55.154Z,103658.47
2023-02-12T23:11:25.962Z,103660.19
2023-02-12T23:13:52.823Z,103671.03
2023-02-12T23:16:20.519Z,103672.44
2023-02-12T23:18:47.786Z,103669.03
2023-02-12T23:21:15.162Z,103674.19
2023-02-12T23:23:41.974Z,103667.91
2023-02-12T23:26:08.898Z,103678.16
2023-02-12T23:28:35.892Z,103663.88
2023-02-12T23:31:03.205Z,103669.03
2023-02-12T23:33:30.361Z,103664.75
2023-02-12T23:35:57.291Z,103668.03
2023-02-12T23:38:24.081Z,103668.31
2023-02-12T23:40:50.910Z,103660.31
2023-02-12T23:43:17.823Z,103664.16
2023-02-12T23:45:45.401Z,103664.16
2023-02-12T23:48:12.951Z,103663.28
2023-02-12T23:50:40.838Z,103657.31
2023-02-12T23:53:10.238Z,103666.16
2023-02-12T23:55:40.392Z,103667.56
2023-02-12T23:58:07.574Z,103656.75
